createdAt,value
2017-12-11T00:02:36.418Z,"    0"
2017-12-11T00:07:33.281Z,"    0"
2017-12-11T00:12:28.433Z,"    0"
2017-12-11T00:17:24.234Z,"    0"
2017-12-11T00:22:19.820Z,"    0"
2017-12-11T00:27:15.465Z,"    0"
2017-12-11T00:32:11.084Z,"    0"
2017-12-11T00:37:06.698Z,"    0"
2017-12-11T00:42:03.494Z,"    0"
2017-12-11T00:46:58.696Z,"    0"
2017-12-11T00:51:55.254Z,"    0"
2017-12-11T00:56:50.505Z,"    0"
2017-12-11T01:01:46.523Z,"    0"
2017-12-11T01:06:42.678Z,"    0"
2017-12-11T01:11:38.359Z,"    0"
2017-12-11T01:16:34.989Z,"    0"
2017-12-11T01:21:30.345Z,"    0"
2017-12-11T01:26:25.726Z,"    0"
2017-12-11T01:31:22.273Z,"    0"
2017-12-11T01:36:18.583Z,"    0"
2017-12-11T01:41:13.948Z,"    0"
2017-12-11T01:46:10.650Z,"    0"
2017-12-11T01:51:05.884Z,"    0"
2017-12-11T01:56:01.300Z,"    0"
2017-12-11T02:00:58.048Z,"    0"
2017-12-11T02:05:54.223Z,"    0"
2017-12-11T02:10:50.680Z,"    0"
2017-12-11T02:15:45.897Z,"    0"
2017-12-11T02:20:42.459Z,"    0"
2017-12-11T02:25:38.759Z,"    0"
2017-12-11T02:30:34.254Z,"    0"
2017-12-11T02:35:31.569Z,"    0"
2017-12-11T02:40:26.492Z,"    0"
2017-12-11T02:45:22.287Z,"    0"
2017-12-11T02:50:19.090Z,"    0"
2017-12-11T02:55:14.934Z,"    0"
2017-12-11T03:00:11.309Z,"    0"
2017-12-11T03:05:07.058Z,"    0"
2017-12-11T03:10:03.392Z,"    0"
2017-12-11T03:14:59.028Z,"    0"
2017-12-11T03:19:56.125Z,"    0"
2017-12-11T03:24:51.624Z,"    0"
2017-12-11T03:29:47.241Z,"    0"
2017-12-11T03:34:43.779Z,"    0"
2017-12-11T03:39:39.083Z,"    0"
2017-12-11T03:44:34.643Z,"    0"
2017-12-11T03:49:31.186Z,"    0"
2017-12-11T03:54:27.851Z,"    0"
2017-12-11T03:59:24.700Z,"    0"
2017-12-11T04:04:20.171Z,"    0"
2017-12-11T04:09:15.728Z,"    0"
2017-12-11T04:14:12.319Z,"    0"
2017-12-11T04:19:07.444Z,"    0"
2017-12-11T04:24:04.380Z,"    0"
2017-12-11T04:28:59.684Z,"    0"
2017-12-11T04:33:55.256Z,"    0"
2017-12-11T04:38:51.036Z,"    0"
2017-12-11T04:43:46.681Z,"    0"
2017-12-11T04:48:42.414Z,"    0"
2017-12-11T04:53:39.033Z,"    0"
2017-12-11T04:58:34.357Z,"    0"
2017-12-11T05:03:30.553Z,"    0"
2017-12-11T05:08:26.838Z,"    0"
2017-12-11T05:13:22.207Z,"    0"
2017-12-11T05:18:18.704Z,"    0"
2017-12-11T05:23:14.993Z,"    0"
2017-12-11T05:28:10.300Z,"    0"
2017-12-11T05:33:07.022Z,"    0"
2017-12-11T05:38:02.345Z,"    0"
2017-12-11T05:42:58.864Z,"    0"
2017-12-11T05:47:54.208Z,"    0"
2017-12-11T05:52:49.828Z,"    0"
2017-12-11T05:57:47.546Z,"    0"
2017-12-11T06:02:43.496Z,"    0"
2017-12-11T06:07:39.594Z,"    0"
2017-12-11T06:12:35.273Z,"    0"
2017-12-11T06:17:30.832Z,"    0"
2017-12-11T06:22:28.610Z,"    0"
2017-12-11T06:27:23.870Z,"    0"
2017-12-11T06:32:19.986Z,"    0"
2017-12-11T06:37:15.398Z,"    0"
2017-12-11T06:42:11.391Z,"    0"
2017-12-11T06:47:06.962Z,"    0"
2017-12-11T06:52:02.184Z,"    0"
2017-12-11T06:56:58.817Z,"    0"
2017-12-11T07:01:54.239Z,"    4"
2017-12-11T07:06:49.793Z,"    8"
2017-12-11T07:11:45.683Z,"   12"
2017-12-11T07:16:41.209Z,"   16"
2017-12-11T07:21:37.764Z,"   24"
2017-12-11T07:26:32.986Z,"   28"
2017-12-11T07:31:28.712Z,"   32"
2017-12-11T07:36:24.469Z,"   52"
2017-12-11T07:41:20.019Z,"   80"
2017-12-11T07:46:15.612Z,"  104"
2017-12-11T07:51:12.240Z,"  132"
2017-12-11T07:56:07.758Z,"  188"
2017-12-11T08:01:03.378Z,"  196"
2017-12-11T08:05:58.719Z,"  232"
2017-12-11T08:10:54.980Z,"  300"
2017-12-11T08:15:50.632Z,"  348"
2017-12-11T08:20:47.344Z,"  400"
2017-12-11T08:25:43.600Z,"  428"
2017-12-11T08:30:39.031Z,"  460"
2017-12-11T08:35:34.624Z,"  468"
2017-12-11T08:40:31.384Z,"  460"
2017-12-11T08:45:27.917Z,"  384"
2017-12-11T08:50:23.275Z,"  460"
2017-12-11T08:55:18.895Z,"  488"
2017-12-11T09:00:15.490Z,"  504"
2017-12-11T09:05:11.832Z,"  540"
2017-12-11T09:10:08.255Z,"  648"
2017-12-11T09:15:04.552Z,"  676"
2017-12-11T09:19:59.601Z,"  680"
2017-12-11T09:24:56.341Z,"  696"
2017-12-11T09:29:52.672Z,"  712"
2017-12-11T09:34:49.039Z,"  828"
2017-12-11T09:39:44.576Z,"  892"
2017-12-11T09:44:40.278Z," 1000"
2017-12-11T09:49:35.649Z," 1248"
2017-12-11T09:54:32.436Z," 1308"
2017-12-11T09:59:27.720Z," 1440"
2017-12-11T10:04:24.129Z," 1428"
2017-12-11T10:09:19.807Z," 1528"
2017-12-11T10:14:16.505Z," 1424"
2017-12-11T10:19:11.922Z," 1396"
2017-12-11T10:24:09.511Z," 1392"
2017-12-11T10:29:04.777Z," 1448"
2017-12-11T10:34:01.662Z," 1536"
2017-12-11T10:38:56.993Z," 1436"
2017-12-11T10:43:52.527Z," 1220"
2017-12-11T10:48:47.990Z," 1392"
2017-12-11T10:53:43.834Z," 1236"
2017-12-11T10:58:39.439Z," 1188"
2017-12-11T11:03:35.063Z," 1216"
2017-12-11T11:08:31.968Z," 1232"
2017-12-11T11:13:27.362Z," 1356"
2017-12-11T11:18:23.246Z," 1208"
2017-12-11T11:23:18.774Z," 1040"
2017-12-11T11:28:14.406Z," 1080"
2017-12-11T11:33:09.992Z," 1116"
2017-12-11T11:38:05.431Z," 1140"
2017-12-11T11:43:01.130Z," 1316"
2017-12-11T11:47:56.789Z," 1432"
2017-12-11T11:52:52.427Z," 1268"
2017-12-11T11:57:47.653Z," 1208"
2017-12-11T12:02:43.102Z," 1288"
2017-12-11T12:07:38.711Z," 1148"
2017-12-11T12:12:34.304Z," 1048"
2017-12-11T12:17:29.788Z," 1056"
2017-12-11T12:22:25.389Z," 1188"
2017-12-11T12:27:20.969Z," 1256"
2017-12-11T12:32:16.462Z," 1432"
2017-12-11T12:37:13.097Z," 1364"
2017-12-11T12:42:09.115Z," 1368"
2017-12-11T12:47:06.457Z," 1444"
2017-12-11T12:52:01.715Z," 1196"
2017-12-11T12:56:58.321Z," 1136"
2017-12-11T13:01:53.478Z," 1156"
2017-12-11T13:06:49.665Z,"  980"
2017-12-11T13:11:45.389Z," 1004"
2017-12-11T13:16:41.211Z," 1008"
2017-12-11T13:21:36.810Z,"  752"
2017-12-11T13:26:33.964Z,"  584"
2017-12-11T13:31:30.351Z,"  636"
2017-12-11T13:36:26.024Z,"  516"
2017-12-11T13:41:22.557Z,"  572"
2017-12-11T13:46:19.237Z,"  552"
2017-12-11T13:51:14.639Z,"  592"
2017-12-11T13:56:10.066Z,"  780"
2017-12-11T14:01:06.658Z,"  852"
2017-12-11T14:06:02.087Z,"  616"
2017-12-11T14:10:57.760Z,"  608"
2017-12-11T14:15:53.429Z,"  484"
2017-12-11T14:20:50.975Z,"  452"
2017-12-11T14:25:46.129Z,"  460"
2017-12-11T14:30:42.306Z,"  408"
2017-12-11T14:35:38.305Z,"  368"
2017-12-11T14:40:35.784Z,"  320"
2017-12-11T14:45:31.262Z,"  284"
2017-12-11T14:50:26.593Z,"  252"
2017-12-11T14:55:24.979Z,"  152"
2017-12-11T15:00:20.127Z,"  116"
2017-12-11T15:05:15.709Z,"   76"
2017-12-11T15:10:11.561Z,"   60"
2017-12-11T15:15:07.035Z,"   40"
2017-12-11T15:20:02.718Z,"   56"
2017-12-11T15:24:58.508Z,"   56"
2017-12-11T15:29:54.241Z,"   20"
2017-12-11T15:34:49.871Z,"   12"
2017-12-11T15:39:46.545Z,"    8"
2017-12-11T15:44:41.895Z,"    4"
2017-12-11T15:49:37.995Z,"    4"
2017-12-11T15:54:33.361Z,"    0"
2017-12-11T15:59:29.030Z,"    0"
2017-12-11T16:04:25.793Z,"    0"
2017-12-11T16:09:22.590Z,"    0"
2017-12-11T16:14:19.484Z,"    0"
2017-12-11T16:19:15.743Z,"    0"
2017-12-11T16:24:10.954Z,"    0"
2017-12-11T16:29:07.121Z,"    0"
2017-12-11T16:34:02.882Z,"    0"
2017-12-11T16:38:58.486Z,"    0"
2017-12-11T16:43:55.733Z,"    0"
2017-12-11T16:48:51.334Z,"    0"
2017-12-11T16:53:47.805Z,"    0"
2017-12-11T16:58:43.111Z,"    0"
2017-12-11T17:03:39.850Z,"    0"
2017-12-11T17:08:35.014Z,"    0"
2017-12-11T17:13:30.875Z,"    0"
2017-12-11T17:18:26.552Z,"    0"
2017-12-11T17:23:23.063Z,"    0"
2017-12-11T17:28:20.192Z,"    0"
2017-12-11T17:33:15.584Z,"    0"
2017-12-11T17:38:11.304Z,"    0"
2017-12-11T17:43:07.953Z,"    0"
2017-12-11T17:48:04.341Z,"    0"
2017-12-11T17:53:00.421Z,"    0"
2017-12-11T17:57:55.743Z,"    0"
2017-12-11T18:02:51.407Z,"    0"
2017-12-11T18:07:47.810Z,"    0"
2017-12-11T18:12:43.680Z,"    0"
2017-12-11T18:17:39.634Z,"    0"
2017-12-11T18:22:35.335Z,"    0"
2017-12-11T18:27:30.994Z,"    0"
2017-12-11T18:32:26.705Z,"    0"
2017-12-11T18:37:22.495Z,"    0"
2017-12-11T18:42:18.400Z,"    0"
2017-12-11T18:47:14.968Z,"    0"
2017-12-11T18:52:10.802Z,"    0"
2017-12-11T18:57:07.473Z,"    0"
2017-12-11T19:02:02.653Z,"    0"
2017-12-11T19:06:58.270Z,"    0"
2017-12-11T19:11:54.084Z,"    0"
2017-12-11T19:16:49.797Z,"    0"
2017-12-11T19:21:45.407Z,"    0"
2017-12-11T19:26:41.080Z,"    0"
2017-12-11T19:31:36.956Z,"    0"
2017-12-11T19:36:32.612Z,"    0"
2017-12-11T19:41:28.407Z,"    0"
2017-12-11T19:46:24.031Z,"    0"
2017-12-11T19:51:19.815Z,"    0"
2017-12-11T19:56:16.565Z,"    0"
2017-12-11T20:01:11.997Z,"    0"
2017-12-11T20:06:07.992Z,"    0"
2017-12-11T20:11:03.446Z,"    0"
2017-12-11T20:15:59.106Z,"    0"
2017-12-11T20:20:54.863Z,"    0"
2017-12-11T20:25:50.652Z,"    0"
2017-12-11T20:30:46.410Z,"    0"
2017-12-11T20:35:41.999Z,"    0"
2017-12-11T20:40:37.795Z,"    0"
2017-12-11T20:45:34.536Z,"    0"
2017-12-11T20:50:31.126Z,"    0"
2017-12-11T20:55:27.351Z,"    0"
2017-12-11T21:00:23.698Z,"    0"
2017-12-11T21:05:19.069Z,"    0"
2017-12-11T21:10:14.740Z,"    0"
2017-12-11T21:15:10.418Z,"    0"
2017-12-11T21:20:05.927Z,"    0"
2017-12-11T21:25:03.656Z,"    0"
2017-12-11T21:29:58.699Z,"    0"
2017-12-11T21:34:54.476Z,"    0"
2017-12-11T21:39:50.078Z,"    0"
2017-12-11T21:44:46.672Z,"    0"
2017-12-11T21:49:43.331Z,"    0"
2017-12-11T21:54:39.745Z,"    0"
2017-12-11T21:59:35.010Z,"    0"
2017-12-11T22:04:30.780Z,"    0"
2017-12-11T22:09:26.926Z,"    0"
2017-12-11T22:14:22.346Z,"    0"
2017-12-11T22:19:18.456Z,"    0"
2017-12-11T22:24:14.870Z,"    0"
2017-12-11T22:29:11.648Z,"    0"
2017-12-11T22:34:07.275Z,"    0"
2017-12-11T22:39:02.843Z,"    0"
2017-12-11T22:43:58.505Z,"    0"
2017-12-11T22:48:54.254Z,"    0"
2017-12-11T22:53:50.802Z,"    0"
2017-12-11T22:58:47.080Z,"    0"
2017-12-11T23:03:43.582Z,"    0"
2017-12-11T23:08:38.961Z,"    0"
2017-12-11T23:13:34.886Z,"    0"
2017-12-11T23:18:30.503Z,"    0"
2017-12-11T23:23:26.066Z,"    0"
2017-12-11T23:28:21.722Z,"    0"
2017-12-11T23:33:18.420Z,"    0"
2017-12-11T23:38:13.969Z,"    0"
2017-12-11T23:43:09.615Z,"    0"
2017-12-11T23:48:05.298Z,"    0"
2017-12-11T23:53:01.809Z,"    0"
2017-12-11T23:57:58.180Z,"    0"
